Time;durP1;ratioP1;P1;durP2;ratioP2;P2;SDS_P1;SDS_P2;PMS_P1;PMS_P2;Temp;Humidity;BMP_temperature;BMP_pressure;BME280_temperature;BME280_humidity;BME280_pressure;Samples;Min_cycle;Max_cycle;Signal;HPM_P1;HPM_P2
2023/07/25 00:02:32;;;;;;;1.15;0.80;;;;;;;20.64;58.24;99091.47;10326793;28;20056;-70
2023/07/25 00:07:34;;;;;;;1.08;0.63;;;;;;;20.64;57.42;99100.41;10328676;28;20057;-69
2023/07/25 00:12:36;;;;;;;1.83;0.90;;;;;;;20.69;57.84;99096.25;10327861;28;20195;-71
2023/07/25 00:17:37;;;;;;;1.27;0.80;;;;;;;20.67;57.84;99091.06;10328719;28;20481;-69
2023/07/25 00:22:39;;;;;;;0.77;0.50;;;;;;;20.67;57.99;99080.25;10331494;28;20069;-69
2023/07/25 00:27:40;;;;;;;1.98;0.60;;;;;;;20.68;57.76;99081.09;10327372;28;20135;-67
2023/07/25 00:32:41;;;;;;;1.40;0.90;;;;;;;20.67;58.30;99082.94;10326142;28;20041;-69
2023/07/25 00:37:43;;;;;;;1.30;0.70;;;;;;;20.65;58.41;99071.50;10359443;28;20511;-70
2023/07/25 00:42:44;;;;;;;2.15;0.45;;;;;;;20.63;57.09;99070.91;10341006;28;20069;-67
2023/07/25 00:47:45;;;;;;;1.88;0.73;;;;;;;20.57;56.81;99059.06;10325940;28;20046;-68
2023/07/25 00:52:47;;;;;;;1.05;0.60;;;;;;;20.59;57.87;99067.78;10326003;28;20140;-70
2023/07/25 00:57:50;;;;;;;1.55;0.80;;;;;;;20.57;57.67;99063.66;10325863;28;20052;-69
2023/07/25 01:02:52;;;;;;;0.80;0.68;;;;;;;20.58;57.94;99055.34;10327487;28;20538;-70
2023/07/25 01:07:55;;;;;;;1.52;0.68;;;;;;;20.58;56.95;99062.59;10327729;28;20057;-71
2023/07/25 01:12:56;;;;;;;0.73;0.43;;;;;;;20.57;57.99;99066.38;10328984;28;20138;-70
2023/07/25 01:17:59;;;;;;;1.00;0.75;;;;;;;20.56;58.63;99068.22;10330253;28;20338;-71
2023/07/25 01:23:02;;;;;;;1.73;0.88;;;;;;;20.56;58.85;99062.00;10324983;28;20526;-71
2023/07/25 01:28:04;;;;;;;1.55;0.85;;;;;;;20.56;58.22;99056.59;10323533;28;20050;-71
2023/07/25 01:33:05;;;;;;;1.15;0.80;;;;;;;20.57;59.04;99047.44;10321997;28;20665;-70
2023/07/25 01:38:06;;;;;;;1.55;0.75;;;;;;;20.52;57.79;99052.66;10328251;28;20647;-69
2023/07/25 01:43:09;;;;;;;1.20;0.90;;;;;;;20.47;58.14;99043.31;10319427;28;20065;-69
2023/07/25 01:48:10;;;;;;;1.35;0.45;;;;;;;20.35;59.08;99028.84;10328176;28;20066;-71
2023/07/25 01:53:11;;;;;;;1.73;1.00;;;;;;;20.32;59.23;99040.09;10326449;28;20057;-70
2023/07/25 01:58:13;;;;;;;1.23;1.10;;;;;;;20.23;59.56;99049.50;10326663;28;20515;-69
2023/07/25 02:03:17;;;;;;;2.88;1.33;;;;;;;20.22;59.59;99047.84;10327407;28;20049;-70
2023/07/25 02:08:19;;;;;;;1.30;1.17;;;;;;;20.17;59.93;99053.06;10330783;28;20137;-71
2023/07/25 02:13:20;;;;;;;2.70;0.90;;;;;;;20.11;60.25;99044.75;10329945;28;20704;-70
2023/07/25 02:18:22;;;;;;;2.40;0.90;;;;;;;20.10;60.17;99043.13;10333264;28;20053;-71
2023/07/25 02:23:23;;;;;;;2.22;1.10;;;;;;;20.10;60.32;99047.69;10330747;28;20049;-68
2023/07/25 02:28:24;;;;;;;1.30;0.90;;;;;;;20.10;61.16;99056.63;10328566;28;20508;-68
2023/07/25 02:33:26;;;;;;;1.95;1.13;;;;;;;20.04;61.96;99054.78;10333549;28;20132;-70
2023/07/25 02:38:27;;;;;;;1.65;1.15;;;;;;;19.74;64.72;99058.00;10330641;28;20120;-70
2023/07/25 02:43:29;;;;;;;1.63;1.33;;;;;;;19.76;66.23;99057.78;10332756;28;20066;-70
2023/07/25 02:48:30;;;;;;;2.42;1.48;;;;;;;19.82;65.63;99050.72;10334495;28;20105;-68
2023/07/25 02:53:31;;;;;;;1.95;1.40;;;;;;;19.82;65.93;99045.34;10336925;28;20137;-71
2023/07/25 02:58:33;;;;;;;1.60;1.45;;;;;;;19.84;67.49;99037.84;10334213;28;20918;-70
2023/07/25 03:03:34;;;;;;;1.70;1.58;;;;;;;19.81;66.92;99030.97;10331569;28;20560;-71
2023/07/25 03:08:35;;;;;;;2.92;2.20;;;;;;;19.74;67.90;99030.13;10328382;28;20041;-69
2023/07/25 03:13:37;;;;;;;3.53;2.03;;;;;;;19.73;67.50;99029.31;10332434;28;20108;-70
2023/07/25 03:18:38;;;;;;;3.05;2.75;;;;;;;19.56;68.28;99003.84;10328436;28;20393;-71
2023/07/25 03:23:39;;;;;;;3.78;3.40;;;;;;;19.55;68.76;99004.88;10321606;28;20555;-71
2023/07/25 03:28:41;;;;;;;4.07;3.10;;;;;;;19.55;68.88;99003.00;10331835;28;20053;-71
2023/07/25 03:33:42;;;;;;;3.63;2.88;;;;;;;19.55;68.98;98996.78;10330863;28;20053;-70
2023/07/25 03:38:44;;;;;;;3.50;3.10;;;;;;;19.54;69.28;98998.66;10329784;28;20191;-71
2023/07/25 03:43:45;;;;;;;7.35;3.97;;;;;;;19.48;70.03;98990.59;10319403;28;20057;-67
2023/07/25 03:48:47;;;;;;;4.60;3.83;;;;;;;19.47;70.14;98995.16;10331209;28;20080;-72
2023/07/25 03:53:48;;;;;;;5.50;4.95;;;;;;;19.48;70.77;98986.00;10330787;28;20077;-73
2023/07/25 03:58:50;;;;;;;7.05;4.95;;;;;;;19.43;70.60;98973.16;10331806;28;20058;-72
2023/07/25 04:03:51;;;;;;;6.18;4.55;;;;;;;19.40;71.88;98972.75;10330645;28;20073;-71
2023/07/25 04:08:53;;;;;;;4.90;3.78;;;;;;;19.37;71.78;98976.69;10327822;28;20631;-69
2023/07/25 04:13:54;;;;;;;4.63;4.22;;;;;;;19.33;72.40;98961.97;10327024;28;20049;-72
2023/07/25 04:18:55;;;;;;;5.28;4.78;;;;;;;19.28;72.83;98959.09;10331766;28;20077;-70
2023/07/25 04:23:57;;;;;;;5.80;5.10;;;;;;;19.24;74.22;98950.56;10327353;28;20132;-70
2023/07/25 04:28:58;;;;;;;5.20;4.28;;;;;;;19.22;74.10;98960.75;10327250;28;20676;-71
2023/07/25 04:33:59;;;;;;;5.22;4.68;;;;;;;19.21;74.37;98963.66;10326918;28;20049;-70
2023/07/25 04:39:01;;;;;;;5.57;5.07;;;;;;;19.17;74.48;98962.44;10324827;28;20807;-70
2023/07/25 04:44:03;;;;;;;4.57;4.15;;;;;;;19.12;75.42;98959.53;10325797;28;20132;-71
2023/07/25 04:49:06;;;;;;;5.65;4.45;;;;;;;19.07;74.94;98966.41;10328501;28;20204;-71
2023/07/25 04:54:08;;;;;;;;;;;;;;;19.06;75.46;98972.81;10329972;28;20057;-70
2023/07/25 04:59:10;;;;;;;5.82;4.75;;;;;;;19.03;75.62;98978.63;10331088;28;20582;-70
2023/07/25 05:04:11;;;;;;;5.07;4.60;;;;;;;19.02;76.08;98987.78;10328276;28;20070;-71
2023/07/25 05:09:12;;;;;;;6.00;5.20;;;;;;;19.00;76.86;98989.84;10327197;28;20741;-70
2023/07/25 05:14:14;;;;;;;5.30;4.80;;;;;;;19.04;76.10;99001.88;10327927;28;20069;-68
2023/07/25 05:19:15;;;;;;;5.85;5.30;;;;;;;18.95;76.47;98997.75;10326444;28;20737;-70
2023/07/25 05:24:17;;;;;;;6.07;5.47;;;;;;;18.96;78.22;99010.19;10341839;28;20101;-72
2023/07/25 05:29:18;;;;;;;7.45;6.75;;;;;;;18.93;77.90;99021.41;10360369;28;20470;-69
2023/07/25 05:34:19;;;;;;;7.43;6.72;;;;;;;18.86;78.97;99015.16;10326886;28;20053;-70
2023/07/25 05:39:21;;;;;;;6.72;5.53;;;;;;;18.83;78.82;99023.63;10329058;28;20506;-70
2023/07/25 05:44:22;;;;;;;7.47;6.80;;;;;;;18.78;78.72;99007.25;10335788;28;20460;-69
2023/07/25 05:49:24;;;;;;;8.07;6.80;;;;;;;18.71;79.10;99018.84;10335128;28;20058;-72
2023/07/25 05:54:25;;;;;;;8.05;7.25;;;;;;;18.63;79.29;99012.84;10334367;28;20045;-69
2023/07/25 05:59:27;;;;;;;7.53;6.78;;;;;;;18.64;79.79;99028.78;10334263;28;20061;-71
2023/07/25 06:04:28;;;;;;;7.93;7.13;;;;;;;18.61;80.86;99004.13;10333707;28;20077;-71
2023/07/25 06:09:30;;;;;;;6.93;6.25;;;;;;;18.64;81.79;99001.84;10333429;28;20038;-69
2023/07/25 06:14:31;;;;;;;7.82;7.03;;;;;;;18.59;81.49;98998.13;10336390;28;20063;-71
2023/07/25 06:19:33;;;;;;;7.60;6.60;;;;;;;18.62;81.33;98993.16;10334621;28;20065;-73
2023/07/25 06:24:34;;;;;;;7.50;6.28;;;;;;;18.57;81.40;98990.25;10335541;28;21006;-70
2023/07/25 06:29:36;;;;;;;7.22;6.07;;;;;;;18.57;82.63;98995.66;10330412;28;20424;-70
2023/07/25 06:34:37;;;;;;;6.70;6.10;;;;;;;18.60;81.88;98992.53;10334162;28;20111;-70
2023/07/25 06:39:39;;;;;;;6.65;5.95;;;;;;;18.57;81.59;98974.09;10332552;28;20550;-71
2023/07/25 06:44:41;;;;;;;7.80;5.95;;;;;;;18.59;82.51;98974.69;10330950;28;20290;-71
2023/07/25 06:49:42;;;;;;;5.57;4.95;;;;;;;18.49;82.11;98974.28;10330324;28;20057;-68
2023/07/25 06:54:44;;;;;;;4.90;4.22;;;;;;;18.50;81.47;98968.69;10332349;28;20286;-70
2023/07/25 06:59:45;;;;;;;5.47;4.97;;;;;;;18.43;83.23;98964.31;10330667;28;20649;-71
2023/07/25 07:04:47;;;;;;;6.00;5.13;;;;;;;18.53;82.58;98967.44;10323535;28;20154;-67
2023/07/25 07:09:48;;;;;;;6.10;4.57;;;;;;;18.53;82.02;98959.38;10327668;28;20076;-71
2023/07/25 07:14:50;;;;;;;5.00;4.53;;;;;;;18.55;82.39;98949.19;10331663;28;20499;-71
2023/07/25 07:19:53;;;;;;;6.07;5.05;;;;;;;18.58;83.21;98932.63;10330955;28;20132;-72
2023/07/25 07:24:55;;;;;;;4.90;4.40;;;;;;;18.59;83.63;98936.97;10330301;28;20059;-71
2023/07/25 07:29:57;;;;;;;5.93;5.03;;;;;;;18.60;83.83;98929.72;10332576;28;20114;-70
2023/07/25 07:34:58;;;;;;;6.18;5.63;;;;;;;18.60;82.73;98935.09;10333910;28;20085;-70
2023/07/25 07:39:59;;;;;;;5.35;4.82;;;;;;;18.54;82.36;98943.00;10328844;28;20064;-70
2023/07/25 07:45:01;;;;;;;6.30;5.80;;;;;;;18.54;82.70;98948.38;10328844;28;20052;-71
2023/07/25 07:50:02;;;;;;;5.22;4.78;;;;;;;18.58;82.08;98956.88;10329017;28;20390;-70
2023/07/25 07:55:04;;;;;;;6.40;5.35;;;;;;;18.45;82.67;98986.50;10328726;28;20744;-71
2023/07/25 08:00:07;;;;;;;8.35;6.15;;;;;;;18.47;85.60;98989.81;10328532;28;20050;-71
2023/07/25 08:05:09;;;;;;;9.35;5.72;;;;;;;18.31;85.74;98959.53;10329336;28;20050;-71
2023/07/25 08:10:11;;;;;;;6.00;5.10;;;;;;;18.36;84.71;98950.88;10327198;28;20048;-70
2023/07/25 08:15:12;;;;;;;7.95;5.45;;;;;;;18.40;85.61;98953.97;10332111;28;20660;-70
2023/07/25 08:20:15;;;;;;;6.85;5.22;;;;;;;18.43;85.10;98967.03;10328336;28;20096;-72
2023/07/25 08:25:16;;;;;;;7.85;6.38;;;;;;;18.45;85.83;98956.84;10330247;28;20053;-72
2023/07/25 08:30:18;;;;;;;4.28;3.88;;;;;;;18.54;84.44;98945.69;10329209;28;20566;-72
2023/07/25 08:35:19;;;;;;;7.15;5.05;;;;;;;18.59;85.47;98944.25;10328677;28;20612;-70
2023/07/25 08:40:21;;;;;;;5.95;5.35;;;;;;;18.64;85.20;98942.56;10333762;28;20046;-71
2023/07/25 08:45:23;;;;;;;5.72;4.78;;;;;;;18.62;85.47;98954.59;10331491;28;20058;-72
2023/07/25 08:50:28;;;;;;;4.95;3.53;;;;;;;18.26;83.30;98955.81;10331167;28;20512;-68
2023/07/25 08:55:30;;;;;;;3.17;2.88;;;;;;;18.28;81.92;98943.78;10328671;28;20390;-72
2023/07/25 09:00:31;;;;;;;5.47;3.80;;;;;;;18.22;84.79;98982.31;10331957;28;20456;-71
2023/07/25 09:05:33;;;;;;;3.95;3.10;;;;;;;18.28;84.50;98981.50;10329145;28;20149;-71
2023/07/25 09:10:34;;;;;;;4.40;4.00;;;;;;;18.32;83.38;98985.44;10334078;28;20049;-72
2023/07/25 09:15:36;;;;;;;5.13;3.85;;;;;;;18.35;84.36;98992.28;10335352;28;20054;-73
2023/07/25 09:20:38;;;;;;;4.45;3.80;;;;;;;18.23;84.16;98986.69;10338691;28;20133;-70
2023/07/25 09:25:39;;;;;;;4.30;3.55;;;;;;;18.30;83.68;98968.66;10337302;28;20401;-71
2023/07/25 09:30:47;;;;;;;3.45;3.15;;;;;;;18.21;84.26;98959.13;10336124;28;20129;-71
2023/07/25 09:35:50;;;;;;;4.00;2.78;;;;;;;18.29;83.89;98950.03;10336288;28;20990;-69
2023/07/25 09:40:51;;;;;;;4.43;4.03;;;;;;;18.23;85.53;98969.69;10335419;28;20046;-71
2023/07/25 09:45:54;;;;;;;3.30;3.10;;;;;;;18.14;85.96;98977.13;10335302;28;20058;-70
2023/07/25 09:50:56;;;;;;;4.78;4.20;;;;;;;18.30;85.33;98979.44;10336334;28;20743;-71
2023/07/25 09:55:58;;;;;;;4.30;3.97;;;;;;;18.43;84.14;98967.84;10334307;28;20148;-70
2023/07/25 10:01:02;;;;;;;3.88;3.58;;;;;;;18.46;83.29;98945.88;10333778;28;20093;-70
2023/07/25 10:06:06;;;;;;;4.28;3.67;;;;;;;18.31;83.53;98954.16;10334609;28;20164;-70
2023/07/25 10:11:08;;;;;;;6.35;4.20;;;;;;;18.40;83.62;98935.09;10334842;28;20053;-71
2023/07/25 10:16:14;;;;;;;3.60;3.25;;;;;;;18.50;82.14;98947.13;10335581;28;20076;-69
2023/07/25 10:21:17;;;;;;;3.75;2.92;;;;;;;18.08;81.30;98967.19;10339724;28;20080;-71
2023/07/25 10:26:20;;;;;;;3.38;3.00;;;;;;;18.23;82.15;98970.53;10365791;28;20594;-69
2023/07/25 10:31:23;;;;;;;3.60;3.20;;;;;;;18.28;81.85;98975.28;10354137;28;20066;-70
2023/07/25 10:36:25;;;;;;;3.83;3.30;;;;;;;18.43;82.08;98989.41;10340201;28;20046;-68
2023/07/25 10:41:26;;;;;;;3.80;3.15;;;;;;;18.66;81.34;98978.22;10345662;28;20050;-72
2023/07/25 10:46:29;;;;;;;5.07;3.17;;;;;;;18.82;79.62;99003.09;10333657;28;20076;-73
2023/07/25 10:51:50;;;;;;;3.70;2.67;;;;;;;18.86;79.12;98999.00;10333568;28;20072;-70
2023/07/25 10:57:22;;;;;;;2.40;2.20;;;;;;;18.69;79.43;98996.69;10337481;28;20148;-71
2023/07/25 11:02:30;;;;;;;3.13;2.63;;;;;;;18.54;80.05;99018.44;10332394;28;20076;-68
2023/07/25 11:07:32;;;;;;;2.47;2.28;;;;;;;18.54;77.90;99028.41;10332015;28;20042;-71
2023/07/25 11:12:34;;;;;;;1.83;1.73;;;;;;;18.48;78.85;99034.56;10332646;28;20053;-73
2023/07/25 11:17:36;;;;;;;1.52;1.35;;;;;;;18.81;77.17;99020.31;10332385;28;20607;-70
2023/07/25 11:22:37;;;;;;;1.98;1.27;;;;;;;19.02;76.81;99030.06;10332419;28;20626;-71
2023/07/25 11:27:44;;;;;;;1.45;1.15;;;;;;;18.77;74.34;99049.56;10328833;28;20049;-71
2023/07/25 11:32:50;;;;;;;3.70;1.60;;;;;;;19.02;75.09;99046.25;10333080;28;20056;-70
2023/07/25 11:37:59;;;;;;;1.50;1.40;;;;;;;19.24;73.10;99060.34;10329654;28;20042;-71
2023/07/25 11:43:11;;;;;;;2.33;1.58;;;;;;;19.04;72.64;99044.19;10341900;28;20038;-70
2023/07/25 11:48:17;;;;;;;1.45;0.75;;;;;;;18.94;68.86;99043.78;10328356;28;20056;-68
2023/07/25 11:53:21;;;;;;;1.30;0.85;;;;;;;18.93;70.19;99059.16;10330208;28;20305;-70
2023/07/25 11:58:22;;;;;;;1.10;0.50;;;;;;;19.12;69.01;99070.13;10332061;28;24619;-68
2023/07/25 12:03:25;;;;;;;1.27;0.68;;;;;;;19.11;69.27;99076.53;10329290;28;20136;-72
2023/07/25 12:08:31;;;;;;;1.65;0.75;;;;;;;19.22;67.32;99084.03;10331328;28;20068;-73
2023/07/25 12:13:41;;;;;;;1.00;0.85;;;;;;;19.37;69.01;99090.03;10330881;28;20050;-69
2023/07/25 12:18:43;;;;;;;2.08;1.17;;;;;;;19.41;67.95;99088.56;10327348;28;20041;-71
2023/07/25 12:23:44;;;;;;;3.10;1.13;;;;;;;19.74;65.51;99097.63;10331327;28;20132;-71
2023/07/25 12:28:46;;;;;;;1.67;0.90;;;;;;;19.92;65.37;99092.44;10330541;28;20060;-71
2023/07/25 12:33:50;;;;;;;1.33;0.70;;;;;;;20.42;64.44;99096.38;10328774;28;20733;-71
2023/07/25 12:38:51;;;;;;;2.63;0.80;;;;;;;20.66;60.44;99087.53;10329860;28;20096;-72
2023/07/25 12:43:53;;;;;;;1.85;1.10;;;;;;;20.54;62.18;99099.25;10329364;28;20586;-71
2023/07/25 12:48:54;;;;;;;1.30;1.05;;;;;;;20.38;63.70;99108.66;10332149;28;20077;-71
2023/07/25 12:53:55;;;;;;;1.38;1.15;;;;;;;20.20;65.04;99102.09;10330117;28;20065;-74
2023/07/25 12:58:57;;;;;;;1.73;1.15;;;;;;;20.37;63.77;99107.00;10324928;28;20751;-72
2023/07/25 13:03:58;;;;;;;2.70;0.80;;;;;;;20.29;63.84;99097.28;10330023;28;20064;-70
2023/07/25 13:09:01;;;;;;;4.32;1.17;;;;;;;20.34;61.67;99092.03;10330353;28;20089;-71
2023/07/25 13:14:02;;;;;;;2.00;1.00;;;;;;;20.54;61.47;99105.47;10334191;28;20046;-72
2023/07/25 13:19:04;;;;;;;2.00;1.15;;;;;;;20.49;60.58;99098.00;10329655;28;20717;-71
2023/07/25 13:24:05;;;;;;;2.80;0.88;;;;;;;20.58;61.46;99109.41;10330665;28;20049;-71
2023/07/25 13:29:07;;;;;;;2.22;1.02;;;;;;;20.57;60.74;99102.31;10329163;28;20082;-69
2023/07/25 13:34:08;;;;;;;3.05;1.95;;;;;;;20.30;60.78;99112.44;10331650;28;20050;-72
2023/07/25 13:39:09;;;;;;;3.10;2.20;;;;;;;19.78;68.29;99132.13;10328542;28;20131;-69
2023/07/25 13:44:11;;;;;;;2.40;1.70;;;;;;;19.30;74.38;99135.06;10328768;28;20057;-71
2023/07/25 13:49:12;;;;;;;4.72;1.63;;;;;;;19.49;74.28;99119.09;10330088;28;20373;-72
2023/07/25 13:54:14;;;;;;;3.08;1.70;;;;;;;19.57;73.70;99119.66;10325019;28;20102;-73
2023/07/25 13:59:15;;;;;;;2.40;1.60;;;;;;;19.62;73.61;99132.53;10327716;28;20056;-71
2023/07/25 14:04:17;;;;;;;3.88;1.77;;;;;;;19.58;74.32;99120.53;10333230;28;20049;-70
2023/07/25 14:09:19;;;;;;;2.78;1.83;;;;;;;19.71;74.60;99125.06;10328217;28;20140;-71
2023/07/25 14:14:21;;;;;;;2.00;1.73;;;;;;;19.82;73.34;99127.16;10335533;28;20054;-70
2023/07/25 14:19:22;;;;;;;2.00;1.60;;;;;;;19.92;73.27;99126.69;10335111;28;20049;-71
2023/07/25 14:24:24;;;;;;;3.08;2.17;;;;;;;19.98;71.51;99135.81;10336469;28;20784;-72
2023/07/25 14:29:25;;;;;;;3.08;1.80;;;;;;;19.97;72.44;99135.00;10333579;28;20060;-70
2023/07/25 14:34:27;;;;;;;2.45;1.65;;;;;;;20.02;70.75;99132.50;10333312;28;20046;-69
2023/07/25 14:39:28;;;;;;;3.75;2.13;;;;;;;20.17;68.70;99140.34;10332874;28;20057;-71
2023/07/25 14:44:30;;;;;;;3.72;2.20;;;;;;;20.25;68.02;99136.56;10330260;28;20064;-71
2023/07/25 14:49:32;;;;;;;2.88;2.08;;;;;;;20.38;69.37;99139.22;10336498;28;20129;-70
2023/07/25 14:54:33;;;;;;;2.05;1.70;;;;;;;20.18;67.18;99142.00;10332743;28;21019;-71
2023/07/25 14:59:35;;;;;;;3.75;2.28;;;;;;;20.27;67.70;99137.19;10333887;28;20657;-71
2023/07/25 15:04:36;;;;;;;2.35;1.55;;;;;;;20.32;68.25;99142.78;10336730;28;20053;-72
2023/07/25 15:09:38;;;;;;;2.22;1.42;;;;;;;20.28;65.28;99146.94;10337173;28;20058;-71
2023/07/25 15:14:39;;;;;;;2.22;1.40;;;;;;;20.35;64.57;99152.34;10360606;28;20723;-71
2023/07/25 15:19:40;;;;;;;2.13;1.63;;;;;;;20.36;64.03;99148.59;10356258;28;20235;-70
2023/07/25 15:24:42;;;;;;;2.33;1.33;;;;;;;20.27;63.97;99145.31;10328689;28;20046;-71
2023/07/25 15:29:43;;;;;;;2.42;1.50;;;;;;;20.33;61.63;99157.09;10330140;28;20998;-72
2023/07/25 15:34:45;;;;;;;4.60;1.10;;;;;;;20.28;64.09;99160.44;10329271;28;20077;-72
2023/07/25 15:39:46;;;;;;;1.77;1.25;;;;;;;20.31;63.30;99155.47;10328027;28;20930;-73
2023/07/25 15:44:48;;;;;;;2.47;1.20;;;;;;;20.34;63.47;99156.88;10329145;28;20061;-69
2023/07/25 15:49:49;;;;;;;2.60;1.40;;;;;;;20.41;62.80;99163.09;10341006;28;20050;-73
2023/07/25 15:54:50;;;;;;;2.42;1.58;;;;;;;20.47;62.71;99162.25;10333948;28;20049;-72
2023/07/25 15:59:52;;;;;;;2.00;1.40;;;;;;;20.52;62.40;99171.59;10329335;28;20077;-70
2023/07/25 16:04:53;;;;;;;1.50;1.20;;;;;;;20.36;59.22;99171.03;10331296;28;20059;-72
2023/07/25 16:09:55;;;;;;;2.60;1.40;;;;;;;20.39;61.77;99169.78;10329598;28;20061;-69
2023/07/25 16:14:56;;;;;;;2.58;1.70;;;;;;;20.46;61.28;99173.28;10332016;28;20053;-72
2023/07/25 16:19:58;;;;;;;2.08;1.10;;;;;;;20.47;61.06;99170.34;10326292;28;20050;-70
2023/07/25 16:25:02;;;;;;;1.63;1.30;;;;;;;20.42;60.75;99178.28;10325685;28;20053;-69
2023/07/25 16:30:04;;;;;;;2.40;1.30;;;;;;;20.38;60.29;99179.75;10329640;28;20050;-70
2023/07/25 16:35:06;;;;;;;2.70;1.70;;;;;;;20.22;62.34;99178.38;10330142;28;20112;-70
2023/07/25 16:40:08;;;;;;;3.75;1.70;;;;;;;20.28;61.31;99182.91;10326540;28;20121;-71
2023/07/25 16:45:09;;;;;;;3.67;2.00;;;;;;;20.19;61.83;99191.44;10327509;28;20078;-71
2023/07/25 16:50:11;;;;;;;3.60;1.40;;;;;;;20.14;61.29;99195.63;10328428;28;20046;-70
2023/07/25 16:55:12;;;;;;;3.25;1.48;;;;;;;20.07;60.70;99205.63;10331449;28;20690;-70
2023/07/25 17:00:14;;;;;;;2.78;2.20;;;;;;;20.00;63.44;99210.22;10321939;28;20627;-73
2023/07/25 17:05:15;;;;;;;2.63;2.30;;;;;;;20.14;62.78;99214.53;10324858;28;20707;-71
2023/07/25 17:10:17;;;;;;;2.95;1.10;;;;;;;20.16;58.71;99224.28;10326064;28;20424;-70
2023/07/25 17:15:19;;;;;;;3.10;1.70;;;;;;;20.19;60.24;99227.44;10324526;28;20555;-69
2023/07/25 17:20:24;;;;;;;5.40;2.13;;;;;;;19.98;56.65;99227.66;10327343;28;20132;-70
2023/07/25 17:25:26;;;;;;;3.30;1.30;;;;;;;19.78;54.74;99229.31;10328112;28;20081;-71
2023/07/25 17:30:28;;;;;;;2.15;1.58;;;;;;;19.88;56.98;99238.91;10329106;28;20053;-69
2023/07/25 17:35:29;;;;;;;1.88;1.10;;;;;;;19.84;54.81;99259.25;10332402;28;20531;-70
2023/07/25 17:40:38;;;;;;;3.78;2.60;;;;;;;19.65;54.51;99267.13;10337773;28;20065;-68
2023/07/25 17:45:40;;;;;;;2.08;1.27;;;;;;;19.72;54.77;99267.91;10335537;28;20064;-70
2023/07/25 17:50:42;;;;;;;3.17;1.60;;;;;;;19.84;56.30;99283.56;10334312;28;20046;-70
2023/07/25 17:55:44;;;;;;;2.88;1.60;;;;;;;19.85;56.23;99286.03;10329957;28;20160;-69
2023/07/25 18:00:46;;;;;;;2.80;1.48;;;;;;;19.86;56.00;99289.56;10335043;28;20046;-69
2023/07/25 18:05:48;;;;;;;3.13;1.70;;;;;;;19.84;56.67;99291.66;10332006;28;20078;-70
2023/07/25 18:10:50;;;;;;;3.47;1.30;;;;;;;19.85;56.42;99304.13;10333379;28;20093;-68
2023/07/25 18:15:52;;;;;;;1.98;1.20;;;;;;;19.80;56.19;99295.78;10332937;28;20058;-68
2023/07/25 18:20:53;;;;;;;3.50;1.65;;;;;;;19.83;56.73;99311.56;10334489;28;20899;-68
2023/07/25 18:26:00;;;;;;;2.47;1.65;;;;;;;19.73;56.18;99311.97;10335145;28;20139;-72
2023/07/25 18:31:02;;;;;;;3.95;1.90;;;;;;;19.75;56.33;99337.69;10333626;28;20060;-72
2023/07/25 18:36:03;;;;;;;2.75;1.35;;;;;;;19.74;56.38;99346.00;10334257;28;20667;-72
2023/07/25 18:41:05;;;;;;;4.50;1.70;;;;;;;19.67;56.46;99358.69;10329636;28;20172;-72
2023/07/25 18:46:07;;;;;;;2.42;1.45;;;;;;;19.61;57.22;99357.63;10331692;28;20057;-68
2023/07/25 18:51:08;;;;;;;2.22;1.40;;;;;;;19.50;55.95;99367.16;10336919;28;20058;-70
2023/07/25 18:56:09;;;;;;;2.92;1.10;;;;;;;19.50;56.04;99374.41;10331735;28;20052;-68
2023/07/25 19:01:12;;;;;;;2.55;1.10;;;;;;;19.28;53.97;99376.44;10332545;28;20052;-68
2023/07/25 19:06:13;;;;;;;1.95;1.10;;;;;;;19.20;54.29;99382.81;10329249;28;20068;-69
2023/07/25 19:11:15;;;;;;;3.10;1.00;;;;;;;19.14;54.94;99397.09;10330186;28;20060;-69
2023/07/25 19:16:16;;;;;;;1.77;0.90;;;;;;;19.18;53.58;99406.47;10329879;28;20057;-70
2023/07/25 19:21:17;;;;;;;2.58;1.25;;;;;;;19.02;52.77;99408.47;10332468;28;20100;-69
2023/07/25 19:26:19;;;;;;;2.28;1.08;;;;;;;18.96;53.10;99414.66;10336098;28;20790;-69
2023/07/25 19:31:20;;;;;;;3.50;1.00;;;;;;;18.91;54.78;99433.28;10332165;28;20052;-69
2023/07/25 19:36:22;;;;;;;1.70;1.05;;;;;;;19.04;53.92;99427.97;10334882;28;20069;-71
2023/07/25 19:41:23;;;;;;;2.75;1.50;;;;;;;19.10;53.72;99425.53;10330753;28;20049;-70
2023/07/25 19:46:24;;;;;;;4.90;0.80;;;;;;;19.01;54.07;99433.75;10330514;28;20605;-68
2023/07/25 19:51:26;;;;;;;3.35;1.00;;;;;;;19.06;54.57;99447.47;10330882;28;20164;-71
2023/07/25 19:56:32;;;;;;;2.20;0.90;;;;;;;19.00;54.67;99447.44;10354186;28;20057;-71
2023/07/25 20:01:34;;;;;;;1.83;0.95;;;;;;;19.01;56.50;99454.50;10357124;28;20742;-68
2023/07/25 20:06:36;;;;;;;2.53;0.80;;;;;;;19.06;56.20;99452.03;10327859;28;20053;-69
2023/07/25 20:11:38;;;;;;;3.08;1.25;;;;;;;19.02;56.04;99457.00;10332955;28;20058;-70
2023/07/25 20:16:39;;;;;;;2.10;1.05;;;;;;;18.70;54.41;99459.22;10332299;28;20146;-70
2023/07/25 20:21:44;;;;;;;2.20;1.00;;;;;;;18.59;54.27;99478.66;10327767;28;20049;-68
2023/07/25 20:26:46;;;;;;;2.67;0.75;;;;;;;18.52;56.36;99475.88;10330035;28;20136;-67
2023/07/25 20:31:48;;;;;;;2.60;0.90;;;;;;;18.61;55.96;99486.53;10331565;28;20128;-68
2023/07/25 20:36:49;;;;;;;3.72;1.13;;;;;;;18.44;56.06;99486.00;10329118;28;20133;-70
2023/07/25 20:41:51;;;;;;;2.42;0.90;;;;;;;18.43;54.21;99504.00;10325307;28;20049;-70
2023/07/25 20:46:52;;;;;;;2.83;0.60;;;;;;;18.42;54.00;99510.44;10328023;28;20147;-69
2023/07/25 20:51:54;;;;;;;1.40;0.70;;;;;;;18.42;54.49;99521.22;10330059;28;20065;-70
2023/07/25 20:56:55;;;;;;;2.22;0.82;;;;;;;18.36;53.33;99520.09;10329663;28;20105;-71
2023/07/25 21:01:57;;;;;;;1.80;0.43;;;;;;;18.42;54.13;99531.13;10325813;28;20054;-71
2023/07/25 21:06:58;;;;;;;3.20;1.33;;;;;;;18.52;55.72;99531.66;10327834;28;20156;-71
2023/07/25 21:11:59;;;;;;;1.27;0.65;;;;;;;18.62;54.40;99537.56;10329830;28;20567;-69
2023/07/25 21:17:01;;;;;;;1.55;0.55;;;;;;;18.59;54.57;99545.19;10328428;28;20072;-72
2023/07/25 21:22:02;;;;;;;2.38;1.08;;;;;;;18.58;53.40;99557.81;10327958;28;20063;-71
2023/07/25 21:27:05;;;;;;;1.25;0.70;;;;;;;18.62;54.45;99564.50;10329033;28;20560;-71
2023/07/25 21:32:06;;;;;;;1.55;0.80;;;;;;;18.67;55.04;99567.44;10324235;28;20065;-70
2023/07/25 21:37:08;;;;;;;2.38;0.75;;;;;;;18.68;54.04;99573.69;10323517;28;20058;-70
2023/07/25 21:42:09;;;;;;;1.85;0.60;;;;;;;18.66;54.98;99576.56;10326705;28;20811;-70
2023/07/25 21:47:11;;;;;;;2.17;1.25;;;;;;;18.66;54.31;99576.56;10327578;28;20073;-72
2023/07/25 21:52:12;;;;;;;2.28;0.88;;;;;;;18.52;55.05;99590.94;10332319;28;20115;-69
2023/07/25 21:57:13;;;;;;;2.38;0.65;;;;;;;18.43;53.79;99584.00;10327571;28;20057;-72
2023/07/25 22:02:19;;;;;;;3.58;0.77;;;;;;;18.36;53.48;99590.16;10328809;28;20125;-69
2023/07/25 22:07:21;;;;;;;2.28;0.93;;;;;;;18.35;55.88;99591.19;10325549;28;20131;-71
2023/07/25 22:12:22;;;;;;;1.90;0.80;;;;;;;18.27;55.54;99590.44;10331558;28;20058;-70
2023/07/25 22:17:24;;;;;;;3.63;0.95;;;;;;;18.43;56.12;99602.88;10324681;28;20128;-72
2023/07/25 22:22:25;;;;;;;1.88;0.93;;;;;;;18.28;54.92;99600.22;10325393;28;20065;-71
2023/07/25 22:27:28;;;;;;;2.55;1.10;;;;;;;18.26;56.11;99600.41;10333507;28;20108;-70
2023/07/25 22:32:29;;;;;;;2.88;1.20;;;;;;;18.25;56.35;99585.25;10331312;28;20185;-70
2023/07/25 22:37:30;;;;;;;4.20;1.10;;;;;;;18.36;56.49;99606.31;10331601;28;20057;-73
2023/07/25 22:42:32;;;;;;;1.10;0.90;;;;;;;18.31;55.57;99595.25;10333045;28;20771;-70
2023/07/25 22:47:33;;;;;;;2.20;1.05;;;;;;;18.28;56.23;99603.72;10333919;28;20420;-71
2023/07/25 22:52:35;;;;;;;4.72;1.40;;;;;;;18.30;57.92;99603.53;10335435;28;20057;-69
2023/07/25 22:57:36;;;;;;;3.42;1.10;;;;;;;18.29;57.12;99612.66;10330249;28;20056;-69
2023/07/25 23:02:38;;;;;;;2.92;1.42;;;;;;;18.27;55.81;99604.78;10328440;28;20050;-71
2023/07/25 23:07:39;;;;;;;3.17;1.17;;;;;;;18.30;57.20;99609.78;10334523;28;20054;-71
2023/07/25 23:12:41;;;;;;;2.85;1.35;;;;;;;18.30;57.19;99612.47;10330780;28;20056;-70
2023/07/25 23:17:42;;;;;;;3.08;1.55;;;;;;;18.30;56.63;99615.16;10332481;28;20046;-72
2023/07/25 23:22:44;;;;;;;1.58;1.42;;;;;;;18.23;58.93;99619.63;10332272;28;20077;-70